sensor_id;sensor_type;location;lat;lon;timestamp;temperature;humidity
67050;DHT22;53955;52.442;13.284;2022-10-17T00:00:17;16.70;69.90
67050;DHT22;53955;52.442;13.284;2022-10-17T00:02:44;16.70;69.50
67050;DHT22;53955;52.442;13.284;2022-10-17T00:05:10;16.80;69.80
67050;DHT22;53955;52.442;13.284;2022-10-17T00:07:37;16.90;69.50
67050;DHT22;53955;52.442;13.284;2022-10-17T00:10:04;17.00;69.60
67050;DHT22;53955;52.442;13.284;2022-10-17T00:12:31;17.00;69.90
67050;DHT22;53955;52.442;13.284;2022-10-17T00:14:58;17.00;70.40
67050;DHT22;53955;52.442;13.284;2022-10-17T00:17:26;16.90;69.90
67050;DHT22;53955;52.442;13.284;2022-10-17T00:19:52;16.80;70.70
67050;DHT22;53955;52.442;13.284;2022-10-17T00:22:19;16.90;70.90
67050;DHT22;53955;52.442;13.284;2022-10-17T00:24:45;16.90;70.60
67050;DHT22;53955;52.442;13.284;2022-10-17T00:27:12;17.00;70.40
67050;DHT22;53955;52.442;13.284;2022-10-17T00:29:38;17.10;70.70
67050;DHT22;53955;52.442;13.284;2022-10-17T00:32:05;17.10;71.10
67050;DHT22;53955;52.442;13.284;2022-10-17T00:34:33;17.00;70.60
67050;DHT22;53955;52.442;13.284;2022-10-17T00:36:59;17.20;71.00
67050;DHT22;53955;52.442;13.284;2022-10-17T00:39:26;17.20;71.00
67050;DHT22;53955;52.442;13.284;2022-10-17T00:41:52;17.20;70.50
67050;DHT22;53955;52.442;13.284;2022-10-17T00:44:56;17.20;71.30
67050;DHT22;53955;52.442;13.284;2022-10-17T00:47:23;17.00;71.40
67050;DHT22;53955;52.442;13.284;2022-10-17T00:49:51;17.20;71.80
67050;DHT22;53955;52.442;13.284;2022-10-17T00:52:20;17.00;72.00
67050;DHT22;53955;52.442;13.284;2022-10-17T00:54:52;16.90;72.90
67050;DHT22;53955;52.442;13.284;2022-10-17T00:57:19;17.00;72.70
67050;DHT22;53955;52.442;13.284;2022-10-17T00:59:48;16.90;73.30
67050;DHT22;53955;52.442;13.284;2022-10-17T01:02:18;16.90;72.90
67050;DHT22;53955;52.442;13.284;2022-10-17T01:04:47;16.90;73.30
67050;DHT22;53955;52.442;13.284;2022-10-17T01:07:15;16.90;73.10
67050;DHT22;53955;52.442;13.284;2022-10-17T01:09:44;17.10;73.20
67050;DHT22;53955;52.442;13.284;2022-10-17T01:12:16;17.00;73.60
67050;DHT22;53955;52.442;13.284;2022-10-17T01:14:50;16.90;74.20
67050;DHT22;53955;52.442;13.284;2022-10-17T01:17:26;16.90;74.40
67050;DHT22;53955;52.442;13.284;2022-10-17T01:22:56;16.70;74.70
67050;DHT22;53955;52.442;13.284;2022-10-17T01:25:35;16.80;75.20
67050;DHT22;53955;52.442;13.284;2022-10-17T01:28:17;16.70;75.20
67050;DHT22;53955;52.442;13.284;2022-10-17T01:31:02;16.60;75.40
67050;DHT22;53955;52.442;13.284;2022-10-17T01:33:42;16.70;75.70
67050;DHT22;53955;52.442;13.284;2022-10-17T01:36:11;16.70;75.70
67050;DHT22;53955;52.442;13.284;2022-10-17T01:38:45;16.60;75.50
67050;DHT22;53955;52.442;13.284;2022-10-17T01:41:18;16.50;76.00
67050;DHT22;53955;52.442;13.284;2022-10-17T01:43:51;16.50;76.00
67050;DHT22;53955;52.442;13.284;2022-10-17T01:46:23;16.60;75.70
67050;DHT22;53955;52.442;13.284;2022-10-17T01:48:52;16.60;75.80
67050;DHT22;53955;52.442;13.284;2022-10-17T01:51:23;16.50;75.90
67050;DHT22;53955;52.442;13.284;2022-10-17T01:53:57;16.60;76.10
67050;DHT22;53955;52.442;13.284;2022-10-17T01:56:26;16.60;76.10
67050;DHT22;53955;52.442;13.284;2022-10-17T01:58:57;16.50;76.10
67050;DHT22;53955;52.442;13.284;2022-10-17T02:01:28;16.50;76.20
67050;DHT22;53955;52.442;13.284;2022-10-17T02:03:57;16.60;76.40
67050;DHT22;53955;52.442;13.284;2022-10-17T02:06:25;16.50;76.30
67050;DHT22;53955;52.442;13.284;2022-10-17T02:08:51;16.60;76.30
67050;DHT22;53955;52.442;13.284;2022-10-17T02:11:19;16.60;76.60
67050;DHT22;53955;52.442;13.284;2022-10-17T02:14:01;16.50;76.40
67050;DHT22;53955;52.442;13.284;2022-10-17T02:16:37;16.50;76.50
67050;DHT22;53955;52.442;13.284;2022-10-17T02:19:16;16.70;76.80
67050;DHT22;53955;52.442;13.284;2022-10-17T02:21:52;16.80;76.80
67050;DHT22;53955;52.442;13.284;2022-10-17T02:24:31;16.80;76.30
67050;DHT22;53955;52.442;13.284;2022-10-17T02:27:02;16.80;76.60
67050;DHT22;53955;52.442;13.284;2022-10-17T02:29:35;16.80;76.90
67050;DHT22;53955;52.442;13.284;2022-10-17T02:32:07;16.80;76.50
67050;DHT22;53955;52.442;13.284;2022-10-17T02:34:37;16.80;76.90
67050;DHT22;53955;52.442;13.284;2022-10-17T02:37:06;16.80;76.90
67050;DHT22;53955;52.442;13.284;2022-10-17T02:39:33;16.60;77.50
67050;DHT22;53955;52.442;13.284;2022-10-17T02:42:02;16.70;77.60
67050;DHT22;53955;52.442;13.284;2022-10-17T02:44:31;16.60;78.30
67050;DHT22;53955;52.442;13.284;2022-10-17T02:47:06;16.60;78.60
67050;DHT22;53955;52.442;13.284;2022-10-17T02:49:37;16.70;78.30
67050;DHT22;53955;52.442;13.284;2022-10-17T02:52:09;16.70;77.90
67050;DHT22;53955;52.442;13.284;2022-10-17T02:54:40;16.70;78.10
67050;DHT22;53955;52.442;13.284;2022-10-17T02:57:13;16.70;78.40
67050;DHT22;53955;52.442;13.284;2022-10-17T02:59:43;16.80;78.70
67050;DHT22;53955;52.442;13.284;2022-10-17T03:02:12;16.90;78.10
67050;DHT22;53955;52.442;13.284;2022-10-17T03:04:42;16.80;78.20
67050;DHT22;53955;52.442;13.284;2022-10-17T03:07:08;16.80;78.00
67050;DHT22;53955;52.442;13.284;2022-10-17T03:09:35;16.90;78.70
67050;DHT22;53955;52.442;13.284;2022-10-17T03:12:02;16.90;79.20
67050;DHT22;53955;52.442;13.284;2022-10-17T03:14:28;16.80;78.70
67050;DHT22;53955;52.442;13.284;2022-10-17T03:16:57;16.90;79.30
67050;DHT22;53955;52.442;13.284;2022-10-17T03:19:25;16.80;78.80
67050;DHT22;53955;52.442;13.284;2022-10-17T03:21:51;16.90;78.90
67050;DHT22;53955;52.442;13.284;2022-10-17T03:24:18;17.00;78.90
67050;DHT22;53955;52.442;13.284;2022-10-17T03:26:44;17.20;80.40
67050;DHT22;53955;52.442;13.284;2022-10-17T03:29:12;17.00;79.30
67050;DHT22;53955;52.442;13.284;2022-10-17T03:31:39;17.20;82.50
67050;DHT22;53955;52.442;13.284;2022-10-17T03:34:05;17.30;79.50
67050;DHT22;53955;52.442;13.284;2022-10-17T03:36:33;17.50;79.50
67050;DHT22;53955;52.442;13.284;2022-10-17T03:39:00;17.60;78.30
67050;DHT22;53955;52.442;13.284;2022-10-17T03:41:26;17.60;78.10
67050;DHT22;53955;52.442;13.284;2022-10-17T03:43:53;17.50;78.40
67050;DHT22;53955;52.442;13.284;2022-10-17T03:46:19;17.60;78.60
67050;DHT22;53955;52.442;13.284;2022-10-17T03:48:46;17.50;78.50
67050;DHT22;53955;52.442;13.284;2022-10-17T03:51:12;17.50;79.30
67050;DHT22;53955;52.442;13.284;2022-10-17T03:53:41;17.40;79.50
67050;DHT22;53955;52.442;13.284;2022-10-17T03:56:08;17.30;79.40
67050;DHT22;53955;52.442;13.284;2022-10-17T03:58:35;17.20;79.80
67050;DHT22;53955;52.442;13.284;2022-10-17T04:01:03;17.20;79.70
67050;DHT22;53955;52.442;13.284;2022-10-17T04:03:29;17.20;79.60
67050;DHT22;53955;52.442;13.284;2022-10-17T04:05:57;17.30;80.20
67050;DHT22;53955;52.442;13.284;2022-10-17T04:08:24;17.30;79.90
67050;DHT22;53955;52.442;13.284;2022-10-17T04:10:52;17.30;80.40
67050;DHT22;53955;52.442;13.284;2022-10-17T04:13:18;17.30;80.20
67050;DHT22;53955;52.442;13.284;2022-10-17T04:15:53;17.30;80.30
67050;DHT22;53955;52.442;13.284;2022-10-17T04:18:19;17.10;81.00
67050;DHT22;53955;52.442;13.284;2022-10-17T04:20:46;17.20;80.40
67050;DHT22;53955;52.442;13.284;2022-10-17T04:23:13;17.00;81.20
67050;DHT22;53955;52.442;13.284;2022-10-17T04:25:39;17.20;81.10
67050;DHT22;53955;52.442;13.284;2022-10-17T04:28:07;17.20;80.70
67050;DHT22;53955;52.442;13.284;2022-10-17T04:30:33;17.20;81.00
67050;DHT22;53955;52.442;13.284;2022-10-17T04:33:00;17.10;81.20
67050;DHT22;53955;52.442;13.284;2022-10-17T04:35:27;17.20;80.60
67050;DHT22;53955;52.442;13.284;2022-10-17T04:37:53;17.20;80.70
67050;DHT22;53955;52.442;13.284;2022-10-17T04:40:20;17.10;80.70
67050;DHT22;53955;52.442;13.284;2022-10-17T04:42:47;17.00;80.30
67050;DHT22;53955;52.442;13.284;2022-10-17T04:45:15;17.10;81.10
67050;DHT22;53955;52.442;13.284;2022-10-17T04:47:41;17.00;80.80
67050;DHT22;53955;52.442;13.284;2022-10-17T04:50:08;17.10;80.10
67050;DHT22;53955;52.442;13.284;2022-10-17T04:52:34;17.10;81.20
67050;DHT22;53955;52.442;13.284;2022-10-17T04:55:02;17.10;80.50
67050;DHT22;53955;52.442;13.284;2022-10-17T04:57:29;17.10;80.80
67050;DHT22;53955;52.442;13.284;2022-10-17T04:59:55;17.10;80.70
67050;DHT22;53955;52.442;13.284;2022-10-17T05:02:23;17.10;80.90
67050;DHT22;53955;52.442;13.284;2022-10-17T05:04:50;17.00;81.00
67050;DHT22;53955;52.442;13.284;2022-10-17T05:07:16;16.90;81.00
67050;DHT22;53955;52.442;13.284;2022-10-17T05:09:43;16.90;81.10
67050;DHT22;53955;52.442;13.284;2022-10-17T05:12:09;16.80;81.70
67050;DHT22;53955;52.442;13.284;2022-10-17T05:14:36;16.70;81.50
67050;DHT22;53955;52.442;13.284;2022-10-17T05:17:02;16.70;81.90
67050;DHT22;53955;52.442;13.284;2022-10-17T05:19:30;16.70;82.50
67050;DHT22;53955;52.442;13.284;2022-10-17T05:21:57;16.60;82.30
67050;DHT22;53955;52.442;13.284;2022-10-17T05:24:23;16.60;82.80
67050;DHT22;53955;52.442;13.284;2022-10-17T05:26:50;16.50;82.90
67050;DHT22;53955;52.442;13.284;2022-10-17T05:29:16;16.50;83.00
67050;DHT22;53955;52.442;13.284;2022-10-17T05:31:43;16.50;82.90
67050;DHT22;53955;52.442;13.284;2022-10-17T05:34:09;16.50;82.80
67050;DHT22;53955;52.442;13.284;2022-10-17T05:36:37;16.60;82.90
67050;DHT22;53955;52.442;13.284;2022-10-17T05:39:04;16.60;83.10
67050;DHT22;53955;52.442;13.284;2022-10-17T05:41:31;16.60;82.50
67050;DHT22;53955;52.442;13.284;2022-10-17T05:43:57;16.50;82.50
67050;DHT22;53955;52.442;13.284;2022-10-17T05:46:24;16.70;82.60
67050;DHT22;53955;52.442;13.284;2022-10-17T05:48:50;16.80;81.90
67050;DHT22;53955;52.442;13.284;2022-10-17T05:51:19;16.70;82.20
67050;DHT22;53955;52.442;13.284;2022-10-17T05:53:47;16.70;81.80
67050;DHT22;53955;52.442;13.284;2022-10-17T05:56:14;16.90;81.80
67050;DHT22;53955;52.442;13.284;2022-10-17T05:58:41;16.90;81.60
67050;DHT22;53955;52.442;13.284;2022-10-17T06:01:10;16.90;81.80
67050;DHT22;53955;52.442;13.284;2022-10-17T06:03:37;17.10;81.20
67050;DHT22;53955;52.442;13.284;2022-10-17T06:06:04;17.10;81.00
67050;DHT22;53955;52.442;13.284;2022-10-17T06:08:31;17.20;80.60
67050;DHT22;53955;52.442;13.284;2022-10-17T06:10:59;17.40;79.90
67050;DHT22;53955;52.442;13.284;2022-10-17T06:13:26;17.50;79.40
67050;DHT22;53955;52.442;13.284;2022-10-17T06:15:53;17.70;79.40
67050;DHT22;53955;52.442;13.284;2022-10-17T06:18:20;17.60;79.40
67050;DHT22;53955;52.442;13.284;2022-10-17T06:20:46;17.80;78.60
67050;DHT22;53955;52.442;13.284;2022-10-17T06:23:13;17.80;78.40
67050;DHT22;53955;52.442;13.284;2022-10-17T06:25:40;17.90;78.00
67050;DHT22;53955;52.442;13.284;2022-10-17T06:28:07;17.80;78.10
67050;DHT22;53955;52.442;13.284;2022-10-17T06:30:36;17.90;78.00
67050;DHT22;53955;52.442;13.284;2022-10-17T06:33:03;18.00;77.90
67050;DHT22;53955;52.442;13.284;2022-10-17T06:35:29;18.00;77.60
67050;DHT22;53955;52.442;13.284;2022-10-17T06:37:56;18.20;76.10
67050;DHT22;53955;52.442;13.284;2022-10-17T06:40:23;18.30;75.80
67050;DHT22;53955;52.442;13.284;2022-10-17T06:42:49;18.60;74.80
67050;DHT22;53955;52.442;13.284;2022-10-17T06:45:17;19.10;73.70
67050;DHT22;53955;52.442;13.284;2022-10-17T06:47:43;20.30;70.10
67050;DHT22;53955;52.442;13.284;2022-10-17T06:50:10;21.10;65.20
67050;DHT22;53955;52.442;13.284;2022-10-17T06:52:36;21.70;63.00
67050;DHT22;53955;52.442;13.284;2022-10-17T06:55:04;22.00;61.30
67050;DHT22;53955;52.442;13.284;2022-10-17T06:57:30;21.90;60.20
67050;DHT22;53955;52.442;13.284;2022-10-17T06:59:57;22.00;61.50
67050;DHT22;53955;52.442;13.284;2022-10-17T07:02:25;22.10;60.20
67050;DHT22;53955;52.442;13.284;2022-10-17T07:04:51;22.20;59.70
67050;DHT22;53955;52.442;13.284;2022-10-17T07:07:18;22.70;57.70
67050;DHT22;53955;52.442;13.284;2022-10-17T07:09:44;23.20;56.90
67050;DHT22;53955;52.442;13.284;2022-10-17T07:12:11;24.20;51.50
67050;DHT22;53955;52.442;13.284;2022-10-17T07:14:37;24.90;50.80
67050;DHT22;53955;52.442;13.284;2022-10-17T07:17:04;25.40;48.30
67050;DHT22;53955;52.442;13.284;2022-10-17T07:19:32;25.00;47.70
67050;DHT22;53955;52.442;13.284;2022-10-17T07:21:58;24.30;50.20
67050;DHT22;53955;52.442;13.284;2022-10-17T07:24:25;24.10;50.30
67050;DHT22;53955;52.442;13.284;2022-10-17T07:26:51;23.80;51.90
67050;DHT22;53955;52.442;13.284;2022-10-17T07:29:18;23.70;51.30
67050;DHT22;53955;52.442;13.284;2022-10-17T07:31:44;23.40;54.70
67050;DHT22;53955;52.442;13.284;2022-10-17T07:34:13;23.20;55.10
67050;DHT22;53955;52.442;13.284;2022-10-17T07:36:41;22.70;56.70
67050;DHT22;53955;52.442;13.284;2022-10-17T07:39:08;22.40;57.80
67050;DHT22;53955;52.442;13.284;2022-10-17T07:41:35;22.10;58.60
67050;DHT22;53955;52.442;13.284;2022-10-17T07:44:02;22.40;58.10
67050;DHT22;53955;52.442;13.284;2022-10-17T07:46:29;22.50;57.90
67050;DHT22;53955;52.442;13.284;2022-10-17T07:48:55;22.30;58.50
67050;DHT22;53955;52.442;13.284;2022-10-17T07:51:22;22.00;58.80
67050;DHT22;53955;52.442;13.284;2022-10-17T07:53:50;21.60;61.20
67050;DHT22;53955;52.442;13.284;2022-10-17T07:56:16;21.10;63.90
67050;DHT22;53955;52.442;13.284;2022-10-17T07:58:43;20.90;64.00
67050;DHT22;53955;52.442;13.284;2022-10-17T08:01:10;20.80;65.70
67050;DHT22;53955;52.442;13.284;2022-10-17T08:03:39;20.80;66.50
67050;DHT22;53955;52.442;13.284;2022-10-17T08:06:05;20.90;65.10
67050;DHT22;53955;52.442;13.284;2022-10-17T08:08:32;20.90;65.60
67050;DHT22;53955;52.442;13.284;2022-10-17T08:11:03;20.90;65.20
67050;DHT22;53955;52.442;13.284;2022-10-17T08:13:30;21.00;65.60
67050;DHT22;53955;52.442;13.284;2022-10-17T08:16:00;20.90;65.80
67050;DHT22;53955;52.442;13.284;2022-10-17T08:18:27;20.90;66.10
67050;DHT22;53955;52.442;13.284;2022-10-17T08:20:54;21.10;65.60
67050;DHT22;53955;52.442;13.284;2022-10-17T08:23:20;21.10;65.10
67050;DHT22;53955;52.442;13.284;2022-10-17T08:25:47;21.50;65.00
67050;DHT22;53955;52.442;13.284;2022-10-17T08:28:15;21.50;63.90
67050;DHT22;53955;52.442;13.284;2022-10-17T08:30:41;21.50;63.70
67050;DHT22;53955;52.442;13.284;2022-10-17T08:33:08;21.40;64.10
67050;DHT22;53955;52.442;13.284;2022-10-17T08:35:34;21.20;64.50
67050;DHT22;53955;52.442;13.284;2022-10-17T08:38:01;21.30;64.50
67050;DHT22;53955;52.442;13.284;2022-10-17T08:40:30;21.30;64.80
67050;DHT22;53955;52.442;13.284;2022-10-17T08:43:18;21.30;64.00
67050;DHT22;53955;52.442;13.284;2022-10-17T08:45:51;21.20;64.40
67050;DHT22;53955;52.442;13.284;2022-10-17T08:48:20;21.20;64.80
67050;DHT22;53955;52.442;13.284;2022-10-17T08:50:50;21.30;64.40
67050;DHT22;53955;52.442;13.284;2022-10-17T08:53:21;21.30;63.70
67050;DHT22;53955;52.442;13.284;2022-10-17T08:55:51;21.30;63.80
67050;DHT22;53955;52.442;13.284;2022-10-17T08:58:21;21.40;64.00
67050;DHT22;53955;52.442;13.284;2022-10-17T09:00:54;21.70;63.70
67050;DHT22;53955;52.442;13.284;2022-10-17T09:03:43;22.10;61.20
67050;DHT22;53955;52.442;13.284;2022-10-17T09:06:16;22.10;61.70
67050;DHT22;53955;52.442;13.284;2022-10-17T09:08:50;22.20;60.60
67050;DHT22;53955;52.442;13.284;2022-10-17T09:11:33;22.30;60.80
67050;DHT22;53955;52.442;13.284;2022-10-17T09:14:11;22.20;60.70
67050;DHT22;53955;52.442;13.284;2022-10-17T09:17:04;22.10;61.50
67050;DHT22;53955;52.442;13.284;2022-10-17T09:19:35;21.80;62.40
67050;DHT22;53955;52.442;13.284;2022-10-17T09:22:07;21.70;63.10
67050;DHT22;53955;52.442;13.284;2022-10-17T09:24:39;21.80;63.40
67050;DHT22;53955;52.442;13.284;2022-10-17T09:27:20;21.90;62.90
67050;DHT22;53955;52.442;13.284;2022-10-17T09:29:53;21.90;62.20
67050;DHT22;53955;52.442;13.284;2022-10-17T09:32:23;21.90;61.90
67050;DHT22;53955;52.442;13.284;2022-10-17T09:34:50;21.80;62.70
67050;DHT22;53955;52.442;13.284;2022-10-17T09:37:17;22.00;62.50
67050;DHT22;53955;52.442;13.284;2022-10-17T09:39:44;22.00;62.50
67050;DHT22;53955;52.442;13.284;2022-10-17T09:42:13;21.90;61.30
67050;DHT22;53955;52.442;13.284;2022-10-17T09:44:46;22.00;61.70
67050;DHT22;53955;52.442;13.284;2022-10-17T09:47:24;22.00;61.10
67050;DHT22;53955;52.442;13.284;2022-10-17T09:49:52;22.10;61.10
67050;DHT22;53955;52.442;13.284;2022-10-17T09:52:21;22.30;60.30
67050;DHT22;53955;52.442;13.284;2022-10-17T09:54:51;22.40;60.60
67050;DHT22;53955;52.442;13.284;2022-10-17T09:57:20;22.50;60.90
67050;DHT22;53955;52.442;13.284;2022-10-17T09:59:56;22.60;59.50
67050;DHT22;53955;52.442;13.284;2022-10-17T10:02:25;22.70;58.90
67050;DHT22;53955;52.442;13.284;2022-10-17T10:04:55;22.80;58.90
67050;DHT22;53955;52.442;13.284;2022-10-17T10:07:23;23.00;57.40
67050;DHT22;53955;52.442;13.284;2022-10-17T10:09:50;23.10;57.50
67050;DHT22;53955;52.442;13.284;2022-10-17T10:12:19;23.10;56.70
67050;DHT22;53955;52.442;13.284;2022-10-17T10:14:45;23.20;57.50
67050;DHT22;53955;52.442;13.284;2022-10-17T10:17:28;23.20;57.50
67050;DHT22;53955;52.442;13.284;2022-10-17T10:19:55;23.30;56.50
67050;DHT22;53955;52.442;13.284;2022-10-17T10:22:22;23.30;56.30
67050;DHT22;53955;52.442;13.284;2022-10-17T10:25:06;23.30;57.20
67050;DHT22;53955;52.442;13.284;2022-10-17T10:27:33;23.40;56.40
67050;DHT22;53955;52.442;13.284;2022-10-17T10:30:00;23.50;56.50
67050;DHT22;53955;52.442;13.284;2022-10-17T10:32:29;23.60;56.90
67050;DHT22;53955;52.442;13.284;2022-10-17T10:34:59;23.60;53.60
67050;DHT22;53955;52.442;13.284;2022-10-17T10:37:28;23.70;53.40
67050;DHT22;53955;52.442;13.284;2022-10-17T10:39:58;23.80;53.50
67050;DHT22;53955;52.442;13.284;2022-10-17T10:42:28;24.00;52.70
67050;DHT22;53955;52.442;13.284;2022-10-17T10:44:58;24.10;52.80
67050;DHT22;53955;52.442;13.284;2022-10-17T10:47:28;24.10;51.20
67050;DHT22;53955;52.442;13.284;2022-10-17T10:50:24;24.30;50.90
67050;DHT22;53955;52.442;13.284;2022-10-17T10:52:57;24.20;50.70
67050;DHT22;53955;52.442;13.284;2022-10-17T10:55:29;24.30;49.90
67050;DHT22;53955;52.442;13.284;2022-10-17T10:58:00;24.30;50.10
67050;DHT22;53955;52.442;13.284;2022-10-17T11:00:31;24.30;49.60
67050;DHT22;53955;52.442;13.284;2022-10-17T11:03:07;24.40;49.60
67050;DHT22;53955;52.442;13.284;2022-10-17T11:05:40;24.40;50.30
67050;DHT22;53955;52.442;13.284;2022-10-17T11:08:16;24.50;49.50
67050;DHT22;53955;52.442;13.284;2022-10-17T11:10:56;24.50;49.60
67050;DHT22;53955;52.442;13.284;2022-10-17T11:13:27;24.60;49.30
67050;DHT22;53955;52.442;13.284;2022-10-17T11:15:58;24.70;47.90
67050;DHT22;53955;52.442;13.284;2022-10-17T11:18:33;24.70;48.30
67050;DHT22;53955;52.442;13.284;2022-10-17T11:21:05;24.70;48.50
67050;DHT22;53955;52.442;13.284;2022-10-17T11:23:39;24.60;48.20
67050;DHT22;53955;52.442;13.284;2022-10-17T11:26:16;24.70;48.30
67050;DHT22;53955;52.442;13.284;2022-10-17T11:28:50;24.60;47.80
67050;DHT22;53955;52.442;13.284;2022-10-17T11:31:17;24.70;48.70
67050;DHT22;53955;52.442;13.284;2022-10-17T11:33:48;24.70;49.10
67050;DHT22;53955;52.442;13.284;2022-10-17T11:36:17;24.60;49.00
67050;DHT22;53955;52.442;13.284;2022-10-17T11:38:47;24.70;49.50
67050;DHT22;53955;52.442;13.284;2022-10-17T11:41:19;24.60;49.10
67050;DHT22;53955;52.442;13.284;2022-10-17T11:43:50;24.60;49.50
67050;DHT22;53955;52.442;13.284;2022-10-17T11:46:21;24.70;48.90
67050;DHT22;53955;52.442;13.284;2022-10-17T11:49:00;24.70;49.30
67050;DHT22;53955;52.442;13.284;2022-10-17T11:51:30;24.70;48.20
67050;DHT22;53955;52.442;13.284;2022-10-17T11:54:05;24.80;48.90
67050;DHT22;53955;52.442;13.284;2022-10-17T11:56:41;24.70;48.30
67050;DHT22;53955;52.442;13.284;2022-10-17T11:59:31;24.80;48.80
67050;DHT22;53955;52.442;13.284;2022-10-17T12:02:10;24.90;47.70
67050;DHT22;53955;52.442;13.284;2022-10-17T12:04:47;24.90;47.60
67050;DHT22;53955;52.442;13.284;2022-10-17T12:07:23;25.00;47.50
67050;DHT22;53955;52.442;13.284;2022-10-17T12:09:58;25.00;47.20
67050;DHT22;53955;52.442;13.284;2022-10-17T12:12:28;25.10;47.40
67050;DHT22;53955;52.442;13.284;2022-10-17T12:15:29;25.20;47.50
67050;DHT22;53955;52.442;13.284;2022-10-17T12:17:57;25.10;46.20
67050;DHT22;53955;52.442;13.284;2022-10-17T12:20:32;25.10;47.00
67050;DHT22;53955;52.442;13.284;2022-10-17T12:23:20;25.20;46.30
67050;DHT22;53955;52.442;13.284;2022-10-17T12:25:50;25.30;46.90
67050;DHT22;53955;52.442;13.284;2022-10-17T12:28:27;25.40;46.60
67050;DHT22;53955;52.442;13.284;2022-10-17T12:30:58;25.30;47.10
67050;DHT22;53955;52.442;13.284;2022-10-17T12:33:29;25.40;46.10
67050;DHT22;53955;52.442;13.284;2022-10-17T12:42:47;25.50;45.70
67050;DHT22;53955;52.442;13.284;2022-10-17T12:45:45;25.60;45.80
67050;DHT22;53955;52.442;13.284;2022-10-17T12:51:19;25.60;45.80
67050;DHT22;53955;52.442;13.284;2022-10-17T12:53:52;25.50;47.30
67050;DHT22;53955;52.442;13.284;2022-10-17T12:56:30;25.60;45.40
67050;DHT22;53955;52.442;13.284;2022-10-17T12:58:58;25.50;45.60
67050;DHT22;53955;52.442;13.284;2022-10-17T13:01:27;25.50;45.70
67050;DHT22;53955;52.442;13.284;2022-10-17T13:03:57;25.50;45.50
67050;DHT22;53955;52.442;13.284;2022-10-17T13:06:28;25.50;45.40
67050;DHT22;53955;52.442;13.284;2022-10-17T13:08:59;25.40;46.10
67050;DHT22;53955;52.442;13.284;2022-10-17T13:11:28;25.40;46.10
67050;DHT22;53955;52.442;13.284;2022-10-17T13:13:57;25.20;45.50
67050;DHT22;53955;52.442;13.284;2022-10-17T13:16:29;25.30;45.90
67050;DHT22;53955;52.442;13.284;2022-10-17T13:18:58;25.40;46.20
67050;DHT22;53955;52.442;13.284;2022-10-17T13:21:25;25.40;45.80
67050;DHT22;53955;52.442;13.284;2022-10-17T13:23:52;25.40;45.70
67050;DHT22;53955;52.442;13.284;2022-10-17T13:26:21;25.30;46.10
67050;DHT22;53955;52.442;13.284;2022-10-17T13:29:00;25.30;46.40
67050;DHT22;53955;52.442;13.284;2022-10-17T13:31:29;25.20;46.00
67050;DHT22;53955;52.442;13.284;2022-10-17T13:33:59;25.10;45.80
67050;DHT22;53955;52.442;13.284;2022-10-17T13:36:26;25.10;45.40
67050;DHT22;53955;52.442;13.284;2022-10-17T13:38:53;25.20;45.10
67050;DHT22;53955;52.442;13.284;2022-10-17T13:41:24;25.20;45.80
67050;DHT22;53955;52.442;13.284;2022-10-17T13:43:52;25.10;45.90
67050;DHT22;53955;52.442;13.284;2022-10-17T13:46:25;25.10;45.80
67050;DHT22;53955;52.442;13.284;2022-10-17T13:48:52;25.10;45.80
67050;DHT22;53955;52.442;13.284;2022-10-17T13:51:21;25.20;45.90
67050;DHT22;53955;52.442;13.284;2022-10-17T13:53:48;25.20;45.50
67050;DHT22;53955;52.442;13.284;2022-10-17T13:56:17;25.30;45.20
67050;DHT22;53955;52.442;13.284;2022-10-17T13:58:46;25.30;45.30
67050;DHT22;53955;52.442;13.284;2022-10-17T14:01:13;25.40;45.70
67050;DHT22;53955;52.442;13.284;2022-10-17T14:03:40;25.50;45.30
67050;DHT22;53955;52.442;13.284;2022-10-17T14:06:13;25.50;45.80
67050;DHT22;53955;52.442;13.284;2022-10-17T14:08:49;25.50;45.60
67050;DHT22;53955;52.442;13.284;2022-10-17T14:11:21;25.50;45.30
67050;DHT22;53955;52.442;13.284;2022-10-17T14:13:51;25.60;45.40
67050;DHT22;53955;52.442;13.284;2022-10-17T14:16:18;25.50;45.80
67050;DHT22;53955;52.442;13.284;2022-10-17T14:18:47;25.40;45.70
67050;DHT22;53955;52.442;13.284;2022-10-17T14:21:19;25.50;45.70
67050;DHT22;53955;52.442;13.284;2022-10-17T14:23:48;25.40;46.00
67050;DHT22;53955;52.442;13.284;2022-10-17T14:26:17;25.30;45.50
67050;DHT22;53955;52.442;13.284;2022-10-17T14:28:45;25.40;46.40
67050;DHT22;53955;52.442;13.284;2022-10-17T14:31:22;25.40;46.20
67050;DHT22;53955;52.442;13.284;2022-10-17T14:33:50;25.40;46.30
67050;DHT22;53955;52.442;13.284;2022-10-17T14:36:17;25.50;45.70
67050;DHT22;53955;52.442;13.284;2022-10-17T14:38:45;25.50;46.20
67050;DHT22;53955;52.442;13.284;2022-10-17T14:41:18;25.40;46.00
67050;DHT22;53955;52.442;13.284;2022-10-17T14:43:51;25.50;46.10
67050;DHT22;53955;52.442;13.284;2022-10-17T14:46:18;25.40;46.50
67050;DHT22;53955;52.442;13.284;2022-10-17T14:48:45;25.20;46.90
67050;DHT22;53955;52.442;13.284;2022-10-17T14:51:17;25.10;47.00
67050;DHT22;53955;52.442;13.284;2022-10-17T14:54:00;25.00;47.10
67050;DHT22;53955;52.442;13.284;2022-10-17T14:56:35;24.90;47.40
67050;DHT22;53955;52.442;13.284;2022-10-17T14:59:02;24.90;48.10
67050;DHT22;53955;52.442;13.284;2022-10-17T15:01:31;24.80;47.60
67050;DHT22;53955;52.442;13.284;2022-10-17T15:03:57;24.80;47.70
67050;DHT22;53955;52.442;13.284;2022-10-17T15:06:27;24.80;47.50
67050;DHT22;53955;52.442;13.284;2022-10-17T15:08:53;24.80;47.80
67050;DHT22;53955;52.442;13.284;2022-10-17T15:11:20;24.90;48.00
67050;DHT22;53955;52.442;13.284;2022-10-17T15:13:48;24.90;48.10
67050;DHT22;53955;52.442;13.284;2022-10-17T15:16:18;24.70;47.90
67050;DHT22;53955;52.442;13.284;2022-10-17T15:18:44;24.70;48.40
67050;DHT22;53955;52.442;13.284;2022-10-17T15:21:12;24.70;48.40
67050;DHT22;53955;52.442;13.284;2022-10-17T15:23:38;24.60;48.60
67050;DHT22;53955;52.442;13.284;2022-10-17T15:26:12;24.60;48.90
67050;DHT22;53955;52.442;13.284;2022-10-17T15:28:40;24.60;49.20
67050;DHT22;53955;52.442;13.284;2022-10-17T15:31:10;24.60;49.50
67050;DHT22;53955;52.442;13.284;2022-10-17T15:33:37;24.60;49.80
67050;DHT22;53955;52.442;13.284;2022-10-17T15:36:04;24.50;49.70
67050;DHT22;53955;52.442;13.284;2022-10-17T15:38:40;24.50;49.80
67050;DHT22;53955;52.442;13.284;2022-10-17T15:41:08;24.40;49.60
67050;DHT22;53955;52.442;13.284;2022-10-17T15:43:36;24.40;49.90